createdAt,value
2019-03-24T00:01:46.715Z,93.80
2019-03-24T00:04:16.877Z,88.67
2019-03-24T00:06:46.890Z,100.23
2019-03-24T00:09:16.806Z,89.97
2019-03-24T00:11:47.004Z,92.60
2019-03-24T00:14:16.965Z,99.97
2019-03-24T00:16:47.259Z,104.07
2019-03-24T00:19:17.444Z,106.03
2019-03-24T00:21:47.424Z,114.73
2019-03-24T00:24:17.533Z,92.50
2019-03-24T00:26:47.932Z,106.83
2019-03-24T00:29:18.101Z,100.60
2019-03-24T00:31:48.329Z,97.93
2019-03-24T00:34:18.376Z,93.57
2019-03-24T00:36:48.304Z,91.67
2019-03-24T00:39:18.370Z,98.23
2019-03-24T00:41:48.521Z,98.47
2019-03-24T00:44:18.462Z,93.03
2019-03-24T00:46:48.507Z,94.60
2019-03-24T00:49:18.521Z,92.90
2019-03-24T00:51:48.517Z,95.27
2019-03-24T00:54:18.627Z,87.97
2019-03-24T00:56:48.582Z,93.50
2019-03-24T00:59:18.887Z,106.93
2019-03-24T01:01:48.839Z,89.93
2019-03-24T01:05:12.743Z,104.30
2019-03-24T01:07:43.215Z,98.87
2019-03-24T01:10:14.162Z,108.53
2019-03-24T01:12:44.453Z,94.13
2019-03-24T01:15:14.908Z,94.17
2019-03-24T01:17:45.383Z,95.33
2019-03-24T01:20:17.066Z,83.23
2019-03-24T01:22:47.194Z,94.13
2019-03-24T01:25:17.326Z,92.07
2019-03-24T01:27:47.316Z,91.43
2019-03-24T01:30:17.651Z,106.00
2019-03-24T01:32:47.682Z,109.03
2019-03-24T01:35:17.603Z,99.23
2019-03-24T01:37:47.745Z,100.97
2019-03-24T01:40:17.919Z,89.07
2019-03-24T01:42:48.151Z,96.43
2019-03-24T01:45:18.114Z,98.53
2019-03-24T01:47:48.296Z,108.50
2019-03-24T01:50:18.543Z,99.13
2019-03-24T01:52:48.689Z,95.57
2019-03-24T01:55:18.765Z,104.90
2019-03-24T01:57:48.894Z,100.10
2019-03-24T02:00:19.183Z,98.10
2019-03-24T02:02:49.123Z,104.57
2019-03-24T02:05:19.376Z,102.93
2019-03-24T02:07:49.341Z,92.60
2019-03-24T02:10:19.820Z,94.93
2019-03-24T02:12:49.800Z,101.70
2019-03-24T02:15:19.921Z,95.50
2019-03-24T02:17:49.936Z,104.20
2019-03-24T02:20:19.951Z,96.13
2019-03-24T02:22:49.975Z,102.43
2019-03-24T02:25:20.160Z,106.33
2019-03-24T02:27:50.196Z,97.63
2019-03-24T02:30:20.431Z,102.00
2019-03-24T02:32:50.718Z,104.33
2019-03-24T02:35:20.779Z,114.70
2019-03-24T02:37:50.787Z,103.83
2019-03-24T02:40:20.937Z,105.17
2019-03-24T02:42:50.929Z,118.40
2019-03-24T02:45:21.057Z,108.07
2019-03-24T02:47:51.071Z,106.90
2019-03-24T02:50:21.074Z,103.93
2019-03-24T02:52:51.422Z,116.37
2019-03-24T02:55:21.632Z,111.20
2019-03-24T02:57:51.765Z,105.50
2019-03-24T03:00:21.996Z,126.73
2019-03-24T03:02:52.310Z,110.37
2019-03-24T03:05:22.228Z,93.73
2019-03-24T03:07:52.257Z,102.87
2019-03-24T03:10:22.251Z,108.00
2019-03-24T03:12:52.376Z,99.40
2019-03-24T03:15:22.299Z,107.43
2019-03-24T03:17:52.328Z,127.33
2019-03-24T03:20:22.348Z,118.23
2019-03-24T03:22:52.265Z,127.73
2019-03-24T03:25:22.283Z,123.67
2019-03-24T03:27:52.271Z,97.23
2019-03-24T03:30:22.242Z,96.00
2019-03-24T03:32:52.236Z,103.47
2019-03-24T03:35:22.346Z,106.27
2019-03-24T03:37:52.325Z,115.30
2019-03-24T03:40:22.347Z,91.27
2019-03-24T03:42:52.295Z,106.87
2019-03-24T03:45:29.393Z,107.57
2019-03-24T03:47:59.386Z,123.43
2019-03-24T03:50:29.335Z,122.20
2019-03-24T03:52:59.376Z,107.10
2019-03-24T03:55:29.321Z,122.40
2019-03-24T03:57:59.251Z,122.97
2019-03-24T04:00:36.487Z,117.23
2019-03-24T04:03:07.667Z,114.07
2019-03-24T04:05:37.653Z,103.30
2019-03-24T04:08:07.924Z,123.93
2019-03-24T04:10:37.865Z,119.13
2019-03-24T04:13:07.867Z,107.57
2019-03-24T04:15:37.832Z,112.67
2019-03-24T04:18:07.961Z,130.27
2019-03-24T04:20:37.886Z,104.63
2019-03-24T04:23:07.974Z,102.13
2019-03-24T04:25:37.994Z,100.23
2019-03-24T04:28:07.951Z,95.07
2019-03-24T04:30:37.889Z,91.10
2019-03-24T04:33:08.045Z,115.83
2019-03-24T04:35:38.106Z,85.47
2019-03-24T04:38:08.168Z,113.43
2019-03-24T04:40:38.123Z,118.87
2019-03-24T04:43:08.082Z,106.93
2019-03-24T04:45:38.097Z,120.10
2019-03-24T04:48:08.155Z,108.30
2019-03-24T04:50:38.193Z,107.50
2019-03-24T04:53:08.340Z,119.97
2019-03-24T04:55:38.478Z,114.97
2019-03-24T04:58:08.469Z,116.40
2019-03-24T05:00:40.096Z,105.37
2019-03-24T05:03:10.109Z,115.97
2019-03-24T05:05:40.827Z,95.40
2019-03-24T05:08:13.495Z,121.00
2019-03-24T05:10:43.465Z,111.87
2019-03-24T05:13:13.609Z,113.57
2019-03-24T05:15:43.512Z,112.23
2019-03-24T05:18:13.566Z,115.23
2019-03-24T05:20:43.513Z,108.63
2019-03-24T05:23:13.421Z,108.43
2019-03-24T05:25:43.716Z,125.03
2019-03-24T05:28:13.929Z,103.70
2019-03-24T05:30:43.839Z,113.03
2019-03-24T05:33:13.875Z,103.70
2019-03-24T05:35:44.067Z,113.30
2019-03-24T05:38:14.176Z,95.77
2019-03-24T05:40:44.410Z,106.50
2019-03-24T05:43:14.456Z,108.00
2019-03-24T05:45:44.403Z,98.00
2019-03-24T05:48:14.747Z,99.97
2019-03-24T05:50:44.768Z,120.80
2019-03-24T05:53:14.786Z,98.43
2019-03-24T05:55:44.823Z,125.87
2019-03-24T05:58:14.754Z,98.80
2019-03-24T06:00:44.754Z,102.53
2019-03-24T06:03:14.815Z,111.63
2019-03-24T06:05:44.743Z,99.23
2019-03-24T06:08:14.784Z,90.83
2019-03-24T06:10:44.828Z,96.73
2019-03-24T06:13:15.034Z,93.33
2019-03-24T06:15:44.973Z,104.83
2019-03-24T06:18:14.965Z,102.00
2019-03-24T06:20:44.897Z,105.20
2019-03-24T06:23:14.999Z,95.23
2019-03-24T06:25:45.043Z,101.13
2019-03-24T06:28:14.992Z,98.23
2019-03-24T06:30:45.292Z,105.73
2019-03-24T06:33:15.311Z,103.40
2019-03-24T06:35:45.394Z,121.90
2019-03-24T06:38:15.435Z,101.50
2019-03-24T06:40:45.460Z,108.13
2019-03-24T06:43:15.557Z,120.43
2019-03-24T06:45:45.529Z,98.83
2019-03-24T06:48:15.470Z,90.77
2019-03-24T06:50:45.433Z,92.83
2019-03-24T06:53:15.422Z,96.10
2019-03-24T06:55:45.382Z,93.60
2019-03-24T06:58:15.913Z,97.00
2019-03-24T07:00:45.830Z,115.37
2019-03-24T07:03:15.926Z,101.90
2019-03-24T07:05:46.029Z,92.63
2019-03-24T07:08:15.955Z,96.93
2019-03-24T07:10:45.871Z,101.27
2019-03-24T07:13:16.022Z,101.30
2019-03-24T07:15:46.195Z,94.37
2019-03-24T07:18:16.218Z,113.97
2019-03-24T07:20:46.266Z,92.93
2019-03-24T07:23:16.454Z,90.97
2019-03-24T07:25:46.421Z,95.50
2019-03-24T07:28:16.309Z,101.97
2019-03-24T07:30:46.343Z,93.97
2019-03-24T07:33:16.351Z,93.90
2019-03-24T07:35:46.468Z,88.53
2019-03-24T07:38:16.495Z,103.20
2019-03-24T07:40:46.506Z,105.97
2019-03-24T07:43:16.718Z,98.57
2019-03-24T07:45:46.624Z,90.07
2019-03-24T07:48:19.404Z,97.07
2019-03-24T07:50:48.605Z,84.57
2019-03-24T07:53:18.603Z,93.40
2019-03-24T07:55:48.660Z,86.93
2019-03-24T07:58:18.649Z,83.40
2019-03-24T08:00:48.650Z,84.30
2019-03-24T08:03:18.689Z,101.03
2019-03-24T08:05:48.718Z,94.20
2019-03-24T08:08:18.635Z,88.17
2019-03-24T08:10:48.529Z,90.00
2019-03-24T08:13:18.566Z,89.73
2019-03-24T08:15:48.486Z,81.80
2019-03-24T08:18:29.278Z,86.53
2019-03-24T08:20:50.338Z,74.80
2019-03-24T08:23:20.293Z,75.47
2019-03-24T08:25:50.475Z,87.60
2019-03-24T08:28:20.402Z,77.00
2019-03-24T08:30:50.358Z,84.27
2019-03-24T08:33:20.253Z,76.17
2019-03-24T08:35:50.284Z,82.93
2019-03-24T08:38:20.208Z,85.90
2019-03-24T08:40:50.299Z,74.93
2019-03-24T08:43:20.297Z,85.17
2019-03-24T08:45:50.213Z,82.70
2019-03-24T08:48:20.166Z,74.03
2019-03-24T08:50:50.083Z,73.43
2019-03-24T08:53:20.288Z,82.77
2019-03-24T08:55:50.293Z,87.93
2019-03-24T08:58:20.223Z,69.20
2019-03-24T09:00:50.233Z,81.17
2019-03-24T09:03:20.336Z,75.73
2019-03-24T09:05:50.265Z,75.20
2019-03-24T09:08:20.318Z,75.73
2019-03-24T09:10:50.316Z,83.00
2019-03-24T09:13:20.317Z,80.03
2019-03-24T09:15:50.328Z,78.37
2019-03-24T09:18:20.241Z,77.83
2019-03-24T09:20:50.394Z,73.77
2019-03-24T09:23:20.308Z,80.50
2019-03-24T09:25:50.223Z,77.20
2019-03-24T09:28:21.230Z,89.60
2019-03-24T09:30:51.145Z,75.60
2019-03-24T09:33:21.080Z,71.17
2019-03-24T09:35:51.283Z,67.97
2019-03-24T09:38:21.239Z,71.27
2019-03-24T09:40:51.186Z,77.50
2019-03-24T09:43:21.331Z,75.97
2019-03-24T09:45:51.265Z,67.37
2019-03-24T09:48:21.294Z,71.13
2019-03-24T09:50:51.415Z,71.07
2019-03-24T09:53:21.554Z,71.50
2019-03-24T09:55:51.670Z,74.00
2019-03-24T09:58:21.743Z,86.40
2019-03-24T10:00:51.696Z,73.47
2019-03-24T10:03:22.084Z,71.70
2019-03-24T10:05:52.133Z,77.63
2019-03-24T10:08:22.250Z,76.80
2019-03-24T10:10:52.272Z,74.93
2019-03-24T10:13:22.296Z,75.00
2019-03-24T10:15:52.250Z,81.10
2019-03-24T10:18:22.250Z,71.03
2019-03-24T10:20:52.219Z,68.07
2019-03-24T10:23:22.351Z,74.00
2019-03-24T10:25:52.370Z,67.30
2019-03-24T10:28:22.322Z,70.60
2019-03-24T10:30:52.230Z,74.37
2019-03-24T10:33:22.203Z,76.37
2019-03-24T10:35:52.173Z,79.83
2019-03-24T10:38:22.345Z,67.90
2019-03-24T10:40:52.288Z,71.57
2019-03-24T10:43:22.204Z,69.83
2019-03-24T10:45:52.324Z,83.13
2019-03-24T10:48:33.122Z,92.53
2019-03-24T10:50:54.410Z,68.50
2019-03-24T10:53:24.407Z,76.20
2019-03-24T10:55:54.352Z,65.97
2019-03-24T10:58:24.296Z,82.33
2019-03-24T11:00:54.440Z,73.90
2019-03-24T11:03:24.402Z,73.63
2019-03-24T11:05:54.322Z,78.00
2019-03-24T11:08:24.255Z,75.30
2019-03-24T11:10:54.312Z,74.20
2019-03-24T11:13:24.290Z,82.07
2019-03-24T11:15:54.195Z,72.30
2019-03-24T11:18:24.159Z,76.23
2019-03-24T11:20:54.102Z,72.27
2019-03-24T11:23:24.043Z,71.90
2019-03-24T11:25:54.035Z,78.10
2019-03-24T11:28:24.053Z,81.70
2019-03-24T11:30:54.013Z,83.70
2019-03-24T11:33:23.930Z,78.23
2019-03-24T11:35:53.902Z,75.03
2019-03-24T11:38:23.830Z,71.30
2019-03-24T11:40:53.757Z,74.00
2019-03-24T11:43:23.965Z,77.33
2019-03-24T11:45:54.046Z,77.50
2019-03-24T11:48:24.207Z,69.03
2019-03-24T11:50:54.383Z,80.60
2019-03-24T11:53:24.332Z,76.67
2019-03-24T11:55:54.357Z,75.07
2019-03-24T11:58:24.455Z,73.17
2019-03-24T12:00:54.410Z,74.03
2019-03-24T12:03:25.501Z,76.43
2019-03-24T12:05:55.562Z,72.13
2019-03-24T12:08:25.873Z,73.63
2019-03-24T12:10:55.982Z,73.77
2019-03-24T12:13:26.016Z,73.20
2019-03-24T12:15:56.023Z,73.13
2019-03-24T12:18:26.168Z,71.23
2019-03-24T12:20:56.185Z,68.87
2019-03-24T12:23:26.156Z,71.20
2019-03-24T12:25:56.084Z,74.83
2019-03-24T12:28:26.123Z,64.43
2019-03-24T12:30:56.127Z,68.67
2019-03-24T12:33:26.130Z,60.97
2019-03-24T12:35:56.282Z,64.63
2019-03-24T12:38:26.887Z,74.20
2019-03-24T12:40:58.594Z,81.07
2019-03-24T12:43:28.691Z,65.60
2019-03-24T12:45:59.079Z,64.27
2019-03-24T12:48:29.226Z,68.20
2019-03-24T12:50:59.306Z,66.60
2019-03-24T12:53:29.379Z,67.67
2019-03-24T12:55:59.293Z,71.50
2019-03-24T12:58:29.213Z,64.03
2019-03-24T13:00:59.155Z,67.83
2019-03-24T13:03:29.121Z,66.83
2019-03-24T13:05:59.061Z,64.30
2019-03-24T13:08:28.978Z,68.20
2019-03-24T13:10:59.135Z,60.00
2019-03-24T13:13:29.082Z,71.13
2019-03-24T13:15:59.008Z,72.83
2019-03-24T13:18:29.027Z,64.33
2019-03-24T13:20:59.143Z,67.87
2019-03-24T13:23:29.155Z,69.30
2019-03-24T13:25:59.174Z,67.80
2019-03-24T13:28:29.153Z,61.87
2019-03-24T13:30:59.195Z,67.07
2019-03-24T13:33:29.124Z,71.50
2019-03-24T13:36:10.037Z,65.30
2019-03-24T13:38:41.075Z,65.07
2019-03-24T13:41:12.225Z,72.50
2019-03-24T13:43:42.184Z,66.93
2019-03-24T13:46:12.323Z,71.20
2019-03-24T13:48:42.870Z,71.83
2019-03-24T13:51:14.362Z,75.53
2019-03-24T13:53:44.323Z,77.50
2019-03-24T13:56:14.266Z,76.93
2019-03-24T13:58:44.444Z,67.40
2019-03-24T14:01:14.908Z,70.93
2019-03-24T14:03:44.899Z,64.90
2019-03-24T14:06:14.858Z,70.03
2019-03-24T14:08:44.825Z,65.73
2019-03-24T14:11:14.829Z,79.63
2019-03-24T14:13:44.876Z,60.83
2019-03-24T14:16:14.891Z,63.63
2019-03-24T14:18:44.911Z,61.07
2019-03-24T14:21:15.020Z,63.57
2019-03-24T14:23:44.973Z,62.27
2019-03-24T14:26:14.948Z,67.40
2019-03-24T14:28:44.969Z,73.10
2019-03-24T14:31:14.919Z,70.80
2019-03-24T14:33:44.916Z,69.13
2019-03-24T14:36:14.877Z,66.20
2019-03-24T14:38:44.939Z,71.93
2019-03-24T14:41:15.061Z,70.60
2019-03-24T14:43:44.980Z,74.03
2019-03-24T14:46:14.976Z,66.10
2019-03-24T14:48:45.023Z,69.73
2019-03-24T14:51:15.105Z,92.23
2019-03-24T14:53:45.175Z,75.10
2019-03-24T14:56:15.181Z,77.13
2019-03-24T14:58:45.322Z,76.20
2019-03-24T15:01:15.307Z,80.47
2019-03-24T15:03:45.329Z,68.00
2019-03-24T15:06:15.285Z,70.83
2019-03-24T15:08:45.263Z,70.63
2019-03-24T15:11:15.206Z,67.67
2019-03-24T15:13:45.369Z,77.70
2019-03-24T15:16:15.695Z,83.40
2019-03-24T15:18:45.662Z,83.50
2019-03-24T15:21:15.611Z,86.63
2019-03-24T15:23:45.686Z,79.73
2019-03-24T15:26:15.877Z,75.47
2019-03-24T15:28:45.906Z,68.73
2019-03-24T15:31:15.823Z,85.33
2019-03-24T15:33:45.980Z,76.97
2019-03-24T15:36:15.982Z,81.50
2019-03-24T15:38:46.083Z,78.63
2019-03-24T15:41:18.320Z,79.00
2019-03-24T15:43:47.874Z,78.03
2019-03-24T15:46:17.973Z,68.13
2019-03-24T15:48:50.117Z,78.47
2019-03-24T15:51:19.757Z,72.37
2019-03-24T15:53:49.706Z,78.13
2019-03-24T15:56:19.699Z,75.30
2019-03-24T15:58:49.745Z,63.70
2019-03-24T16:01:19.763Z,81.07
2019-03-24T16:03:50.041Z,98.67
2019-03-24T16:06:20.285Z,72.80
2019-03-24T16:08:50.379Z,86.73
2019-03-24T16:11:20.338Z,68.80
2019-03-24T16:13:50.514Z,74.43
2019-03-24T16:16:22.873Z,70.43
2019-03-24T16:18:52.539Z,74.87
2019-03-24T16:21:27.778Z,70.57
2019-03-24T16:23:54.177Z,83.07
2019-03-24T16:26:24.139Z,68.77
2019-03-24T16:28:54.196Z,77.57
2019-03-24T16:31:24.237Z,91.97
2019-03-24T16:33:54.493Z,81.40
2019-03-24T16:36:24.646Z,82.13
2019-03-24T16:39:03.142Z,84.97
2019-03-24T16:41:26.303Z,81.53
2019-03-24T16:43:56.396Z,70.37
2019-03-24T16:46:26.391Z,68.10
2019-03-24T16:48:56.324Z,77.90
2019-03-24T16:51:26.263Z,75.17
2019-03-24T16:53:56.245Z,77.23
2019-03-24T16:56:26.337Z,72.87
2019-03-24T16:58:56.562Z,66.60
2019-03-24T17:01:26.555Z,79.70
2019-03-24T17:03:56.826Z,69.97
2019-03-24T17:06:26.766Z,79.93
2019-03-24T17:08:56.794Z,85.07
2019-03-24T17:11:26.773Z,76.50
2019-03-24T17:13:56.905Z,77.97
2019-03-24T17:16:26.896Z,70.37
2019-03-24T17:18:56.856Z,71.37
2019-03-24T17:21:26.835Z,71.70
2019-03-24T17:23:56.857Z,64.33
2019-03-24T17:26:26.817Z,80.77
2019-03-24T17:28:57.786Z,89.93
2019-03-24T17:31:27.972Z,80.57
2019-03-24T17:33:58.227Z,74.43
2019-03-24T17:36:29.791Z,75.30
2019-03-24T17:39:00.031Z,66.30
2019-03-24T17:41:29.949Z,73.07
2019-03-24T17:44:03.434Z,72.43
2019-03-24T17:46:31.918Z,79.40
2019-03-24T17:49:03.813Z,77.03
2019-03-24T17:51:34.002Z,73.67
2019-03-24T17:54:04.071Z,70.63
2019-03-24T17:56:34.089Z,70.80
2019-03-24T17:59:04.060Z,73.10
2019-03-24T18:01:35.499Z,79.50
2019-03-24T18:04:05.519Z,83.13
2019-03-24T18:06:35.444Z,72.47
2019-03-24T18:09:08.182Z,77.30
2019-03-24T18:11:38.194Z,68.77
2019-03-24T18:14:08.407Z,78.77
2019-03-24T18:16:38.324Z,85.00
2019-03-24T18:19:08.282Z,74.50
2019-03-24T18:21:38.444Z,79.47
2019-03-24T18:24:08.565Z,85.70
2019-03-24T18:26:38.602Z,72.77
2019-03-24T18:29:08.678Z,94.40
2019-03-24T18:31:38.735Z,88.27
2019-03-24T18:34:08.655Z,70.20
2019-03-24T18:36:38.670Z,76.80
2019-03-24T18:39:10.250Z,78.27
2019-03-24T18:41:40.325Z,69.63
2019-03-24T18:44:10.358Z,65.17
2019-03-24T18:46:40.401Z,71.73
2019-03-24T18:49:10.590Z,76.87
2019-03-24T18:51:40.654Z,70.73
2019-03-24T18:54:10.619Z,63.00
2019-03-24T18:56:40.555Z,72.53
2019-03-24T18:59:10.528Z,66.73
2019-03-24T19:01:40.487Z,72.60
2019-03-24T19:04:10.411Z,70.77
2019-03-24T19:06:40.341Z,71.30
2019-03-24T19:09:11.004Z,56.43
2019-03-24T19:11:41.029Z,67.40
2019-03-24T19:14:11.183Z,64.03
2019-03-24T19:16:41.187Z,70.43
2019-03-24T19:19:11.217Z,71.93
2019-03-24T19:21:41.136Z,57.03
2019-03-24T19:24:11.147Z,57.27
2019-03-24T19:26:41.069Z,59.07
2019-03-24T19:29:11.283Z,59.47
2019-03-24T19:31:41.410Z,65.13
2019-03-24T19:34:11.399Z,59.57
2019-03-24T19:36:42.557Z,58.60
2019-03-24T19:39:12.567Z,55.93
2019-03-24T19:41:42.614Z,58.40
2019-03-24T19:44:12.585Z,58.07
2019-03-24T19:46:42.753Z,58.50
2019-03-24T19:49:13.226Z,61.57
2019-03-24T19:51:43.456Z,60.03
2019-03-24T19:54:13.516Z,66.23
2019-03-24T19:56:43.607Z,61.13
2019-03-24T19:59:13.586Z,54.77
2019-03-24T20:01:43.727Z,59.40
2019-03-24T20:04:13.954Z,55.10
2019-03-24T20:06:44.091Z,54.40
2019-03-24T20:09:14.716Z,56.93
2019-03-24T20:11:44.661Z,54.90
2019-03-24T20:14:14.859Z,55.80
2019-03-24T20:16:45.106Z,54.57
2019-03-24T20:19:15.096Z,56.50
2019-03-24T20:21:45.145Z,57.20
2019-03-24T20:24:15.128Z,53.50
2019-03-24T20:26:45.066Z,61.73
2019-03-24T20:29:14.997Z,56.63
2019-03-24T20:31:45.323Z,68.90
2019-03-24T20:34:15.417Z,61.57
2019-03-24T20:36:45.358Z,64.13
2019-03-24T20:39:15.426Z,55.60
2019-03-24T20:41:45.428Z,54.57
2019-03-24T20:44:15.416Z,47.67
2019-03-24T20:46:45.559Z,60.63
2019-03-24T20:49:15.668Z,55.43
2019-03-24T20:51:45.685Z,53.30
2019-03-24T20:54:15.863Z,51.90
2019-03-24T20:56:45.840Z,52.10
2019-03-24T20:59:15.847Z,52.83
2019-03-24T21:01:46.029Z,46.07
2019-03-24T21:04:16.054Z,54.63
2019-03-24T21:06:46.276Z,52.73
2019-03-24T21:09:16.287Z,54.10
2019-03-24T21:11:46.328Z,51.10
2019-03-24T21:14:16.275Z,55.47
2019-03-24T21:16:46.620Z,52.37
2019-03-24T21:19:16.669Z,53.77
2019-03-24T21:21:46.612Z,54.50
2019-03-24T21:24:16.738Z,51.50
2019-03-24T21:26:46.823Z,59.97
2019-03-24T21:29:16.863Z,62.17
2019-03-24T21:31:47.029Z,64.70
2019-03-24T21:34:17.090Z,55.93
2019-03-24T21:36:47.192Z,57.60
2019-03-24T21:39:17.216Z,54.90
2019-03-24T21:41:47.402Z,56.13
2019-03-24T21:44:17.382Z,66.80
2019-03-24T21:46:47.483Z,52.00
2019-03-24T21:49:17.670Z,57.77
2019-03-24T21:51:47.768Z,58.23
2019-03-24T21:54:17.732Z,57.20
2019-03-24T21:56:47.788Z,61.83
2019-03-24T21:59:17.930Z,45.17
2019-03-24T22:01:47.909Z,54.83
2019-03-24T22:04:17.946Z,58.73
2019-03-24T22:06:48.129Z,45.07
2019-03-24T22:09:18.197Z,76.17
2019-03-24T22:11:48.255Z,56.30
2019-03-24T22:14:18.467Z,50.90
2019-03-24T22:16:48.601Z,47.53
2019-03-24T22:19:18.558Z,52.43
2019-03-24T22:21:48.665Z,51.50
2019-03-24T22:24:18.658Z,51.53
2019-03-24T22:26:48.687Z,53.60
2019-03-24T22:29:18.715Z,44.40
2019-03-24T22:31:48.792Z,55.60
2019-03-24T22:34:18.956Z,60.70
2019-03-24T22:36:49.160Z,49.93
2019-03-24T22:39:19.363Z,58.67
2019-03-24T22:41:49.425Z,62.17
2019-03-24T22:44:19.488Z,49.27
2019-03-24T22:46:49.950Z,58.97
2019-03-24T22:49:19.963Z,60.50
2019-03-24T22:51:49.997Z,56.90
2019-03-24T22:54:19.919Z,43.43
2019-03-24T22:56:50.055Z,55.40
2019-03-24T22:59:20.039Z,47.73
2019-03-24T23:01:50.189Z,55.57
2019-03-24T23:04:20.162Z,60.33
2019-03-24T23:06:50.137Z,52.33
2019-03-24T23:09:20.297Z,54.77
2019-03-24T23:11:50.236Z,61.60
2019-03-24T23:14:20.273Z,56.90
2019-03-24T23:16:50.190Z,61.67
2019-03-24T23:19:20.259Z,54.17
2019-03-24T23:21:50.393Z,56.03
2019-03-24T23:24:20.416Z,60.67
2019-03-24T23:26:50.454Z,55.77
2019-03-24T23:29:20.442Z,45.47
2019-03-24T23:31:50.408Z,57.57
2019-03-24T23:34:20.565Z,52.50
2019-03-24T23:36:50.480Z,45.60
2019-03-24T23:39:20.620Z,60.80
2019-03-24T23:41:50.823Z,51.00
2019-03-24T23:44:20.752Z,31.03
2019-03-24T23:46:50.878Z,45.63
2019-03-24T23:49:21.476Z,39.00
2019-03-24T23:51:51.503Z,43.73
2019-03-24T23:54:26.866Z,33.23
2019-03-24T23:56:53.116Z,34.97
2019-03-24T23:59:23.026Z,37.00
